Portada
METAR-TAF:

METAR-TAF

Aeroports :

Laghouat, Algèria

latitud: 33-46N, longitud: 002-56E, altitud: 765 m

Observació

L'informe es va fer fa 2 hores i 30 minuts, a les 22:00 UTC
Vent 16 kt del Est
Temperatura 31°C
Humitat 22%
Pressió 1015 hPa
Visibilitat: 5000 m
Escasses núvols a una alçada de 4000 ft
torb baixa de sorra

METAR: DAUL 152200Z 09016KT 5000 DRSA FEW040 31/07 Q1015

Hora: 01:30 (00:30 UTC)

Pronòstic

L'informe es va fer fa 1 hora i 30 minuts, a les 23:00 UTC
Pronòstic vàlid del 16 a les 00 UTC al 16 a les 09 UTC
Vent 14 kt del Est
Visibilitat: 6000 m
Escasses núvols a una alçada de 4000 ft
Temporalment
l' 16 a les 00 UTC al 16 a les 03 UTC
Vent 15 kt del Est amb ràfegues de 25 kt
Visibilitat: 4000 m
torb baixa de sorra

TAF: DAUL 152300Z 1600/1609 08014KT 6000 FEW040 TEMPO 1600/1603 10015G25KT 4000 DRSA

Observacions i pronòstics meteorològics de més de 4000 aeroports (METAR i TAF).

Les estacions disponibles són els punts grocs i vermells al mapa.

Posi el ratolí al punt desitjat per veure el nom de l'estació.

Feu clic per veure les observacions i els pronòstics meteorològics.

Per canviar el mapa: feu clic els botons verds amb una creu de color negre per apropar; al botó verd amb un guió per allunyar la imatge; o en les fletxes verdes per a mapes adjacents.


METAR-TAF: